sensor_id;sensor_type;location;lat;lon;timestamp;pressure;altitude;pressure_sealevel;temperature;humidity
11108;BME280;5607;48.302;14.294;2023-02-14T00:02:08;100532.97;;;1.64;100.00
11108;BME280;5607;48.302;14.294;2023-02-14T00:04:55;100527.22;;;1.53;100.00
11108;BME280;5607;48.302;14.294;2023-02-14T00:07:42;100540.03;;;1.54;100.00
11108;BME280;5607;48.302;14.294;2023-02-14T00:10:28;100532.63;;;1.41;100.00
11108;BME280;5607;48.302;14.294;2023-02-14T00:13:15;100537.94;;;1.72;100.00
11108;BME280;5607;48.302;14.294;2023-02-14T00:16:01;100517.56;;;1.63;100.00
11108;BME280;5607;48.302;14.294;2023-02-14T00:18:48;100533.88;;;1.63;100.00
11108;BME280;5607;48.302;14.294;2023-02-14T00:21:53;100532.09;;;1.65;100.00
11108;BME280;5607;48.302;14.294;2023-02-14T00:24:39;100538.50;;;1.84;100.00
11108;BME280;5607;48.302;14.294;2023-02-14T00:27:26;100555.41;;;1.96;100.00
11108;BME280;5607;48.302;14.294;2023-02-14T00:30:13;100547.44;;;2.07;100.00
11108;BME280;5607;48.302;14.294;2023-02-14T00:32:59;100558.03;;;1.95;100.00
11108;BME280;5607;48.302;14.294;2023-02-14T00:35:46;100559.81;;;1.93;100.00
11108;BME280;5607;48.302;14.294;2023-02-14T00:38:33;100558.78;;;1.98;100.00
11108;BME280;5607;48.302;14.294;2023-02-14T00:41:20;100566.56;;;1.97;100.00
11108;BME280;5607;48.302;14.294;2023-02-14T00:44:08;100576.25;;;1.85;100.00
11108;BME280;5607;48.302;14.294;2023-02-14T00:46:55;100570.47;;;1.76;100.00
11108;BME280;5607;48.302;14.294;2023-02-14T00:49:42;100577.13;;;1.84;100.00
11108;BME280;5607;48.302;14.294;2023-02-14T00:52:30;100584.41;;;2.04;100.00
11108;BME280;5607;48.302;14.294;2023-02-14T00:55:17;100586.69;;;2.18;100.00
11108;BME280;5607;48.302;14.294;2023-02-14T00:58:03;100590.25;;;2.12;100.00
11108;BME280;5607;48.302;14.294;2023-02-14T01:00:50;100583.69;;;1.99;100.00
11108;BME280;5607;48.302;14.294;2023-02-14T01:03:37;100582.28;;;1.84;100.00
11108;BME280;5607;48.302;14.294;2023-02-14T01:06:24;100583.09;;;1.88;100.00
11108;BME280;5607;48.302;14.294;2023-02-14T01:09:10;100574.97;;;2.03;100.00
11108;BME280;5607;48.302;14.294;2023-02-14T01:11:57;100571.38;;;2.10;100.00
11108;BME280;5607;48.302;14.294;2023-02-14T01:14:43;100557.50;;;1.80;100.00
11108;BME280;5607;48.302;14.294;2023-02-14T01:17:30;100553.19;;;1.81;100.00
11108;BME280;5607;48.302;14.294;2023-02-14T01:20:17;100563.78;;;1.67;100.00
11108;BME280;5607;48.302;14.294;2023-02-14T01:23:03;100559.25;;;1.78;100.00
11108;BME280;5607;48.302;14.294;2023-02-14T01:25:50;100558.53;;;1.72;100.00
11108;BME280;5607;48.302;14.294;2023-02-14T01:28:37;100560.13;;;1.77;100.00
11108;BME280;5607;48.302;14.294;2023-02-14T01:31:29;100557.53;;;1.79;100.00
11108;BME280;5607;48.302;14.294;2023-02-14T01:34:15;100551.03;;;2.00;100.00
11108;BME280;5607;48.302;14.294;2023-02-14T01:37:02;100549.16;;;2.06;100.00
11108;BME280;5607;48.302;14.294;2023-02-14T01:39:48;100546.84;;;1.96;100.00
11108;BME280;5607;48.302;14.294;2023-02-14T01:42:36;100539.19;;;1.93;100.00
11108;BME280;5607;48.302;14.294;2023-02-14T01:45:25;100539.34;;;1.86;100.00
11108;BME280;5607;48.302;14.294;2023-02-14T01:48:12;100547.78;;;1.92;100.00
11108;BME280;5607;48.302;14.294;2023-02-14T01:50:59;100535.81;;;1.89;100.00
11108;BME280;5607;48.302;14.294;2023-02-14T01:53:46;100531.66;;;1.83;100.00
11108;BME280;5607;48.302;14.294;2023-02-14T01:56:37;100536.78;;;1.85;100.00
11108;BME280;5607;48.302;14.294;2023-02-14T01:59:28;100539.50;;;1.79;100.00
11108;BME280;5607;48.302;14.294;2023-02-14T02:02:16;100528.28;;;1.80;100.00
11108;BME280;5607;48.302;14.294;2023-02-14T02:05:08;100532.03;;;1.68;100.00
11108;BME280;5607;48.302;14.294;2023-02-14T02:07:58;100530.91;;;1.78;100.00
11108;BME280;5607;48.302;14.294;2023-02-14T02:10:45;100522.72;;;1.63;100.00
11108;BME280;5607;48.302;14.294;2023-02-14T02:13:32;100531.56;;;1.88;100.00
11108;BME280;5607;48.302;14.294;2023-02-14T02:16:39;100520.81;;;1.71;100.00
11108;BME280;5607;48.302;14.294;2023-02-14T02:48:04;100523.13;;;1.43;100.00
11108;BME280;5607;48.302;14.294;2023-02-14T02:50:54;100509.03;;;1.22;100.00
11108;BME280;5607;48.302;14.294;2023-02-14T02:54:12;100519.25;;;1.25;100.00
11108;BME280;5607;48.302;14.294;2023-02-14T02:57:02;100528.47;;;1.35;100.00
11108;BME280;5607;48.302;14.294;2023-02-14T02:59:51;100516.56;;;1.29;100.00
11108;BME280;5607;48.302;14.294;2023-02-14T03:02:44;100504.75;;;1.21;100.00
11108;BME280;5607;48.302;14.294;2023-02-14T03:05:51;100520.13;;;1.24;100.00
11108;BME280;5607;48.302;14.294;2023-02-14T03:08:37;100510.00;;;1.16;100.00
11108;BME280;5607;48.302;14.294;2023-02-14T03:11:24;100510.72;;;1.23;100.00
11108;BME280;5607;48.302;14.294;2023-02-14T03:14:25;100507.25;;;1.24;100.00
11108;BME280;5607;48.302;14.294;2023-02-14T03:23:29;100513.56;;;1.09;100.00
11108;BME280;5607;48.302;14.294;2023-02-14T03:26:20;100505.56;;;1.23;100.00
11108;BME280;5607;48.302;14.294;2023-02-14T03:29:35;100503.84;;;1.23;100.00
11108;BME280;5607;48.302;14.294;2023-02-14T03:32:29;100506.56;;;1.16;100.00
11108;BME280;5607;48.302;14.294;2023-02-14T03:35:23;100507.53;;;1.10;100.00
11108;BME280;5607;48.302;14.294;2023-02-14T03:38:15;100502.38;;;1.12;100.00
11108;BME280;5607;48.302;14.294;2023-02-14T03:41:13;100507.72;;;1.02;100.00
11108;BME280;5607;48.302;14.294;2023-02-14T03:44:06;100508.72;;;0.95;100.00
11108;BME280;5607;48.302;14.294;2023-02-14T03:47:03;100502.81;;;0.90;100.00
11108;BME280;5607;48.302;14.294;2023-02-14T03:49:58;100502.53;;;1.04;100.00
11108;BME280;5607;48.302;14.294;2023-02-14T03:52:49;100506.97;;;0.97;100.00
11108;BME280;5607;48.302;14.294;2023-02-14T03:56:21;100499.16;;;1.02;100.00
11108;BME280;5607;48.302;14.294;2023-02-14T03:58:59;100494.13;;;0.96;100.00
11108;BME280;5607;48.302;14.294;2023-02-14T04:02:16;100505.00;;;1.08;100.00
11108;BME280;5607;48.302;14.294;2023-02-14T04:05:10;100511.22;;;1.00;100.00
11108;BME280;5607;48.302;14.294;2023-02-14T04:07:58;100495.81;;;0.97;100.00
11108;BME280;5607;48.302;14.294;2023-02-14T04:10:45;100500.66;;;1.12;100.00
11108;BME280;5607;48.302;14.294;2023-02-14T04:13:33;100502.38;;;1.12;100.00
11108;BME280;5607;48.302;14.294;2023-02-14T04:16:20;100498.81;;;1.19;100.00
11108;BME280;5607;48.302;14.294;2023-02-14T04:19:07;100499.41;;;1.30;100.00
11108;BME280;5607;48.302;14.294;2023-02-14T04:22:09;100496.97;;;1.24;100.00
11108;BME280;5607;48.302;14.294;2023-02-14T04:24:55;100490.88;;;1.28;100.00
11108;BME280;5607;48.302;14.294;2023-02-14T04:27:42;100495.22;;;1.26;100.00
11108;BME280;5607;48.302;14.294;2023-02-14T04:30:29;100499.22;;;1.76;100.00
11108;BME280;5607;48.302;14.294;2023-02-14T04:33:15;100499.41;;;1.69;100.00
11108;BME280;5607;48.302;14.294;2023-02-14T04:36:02;100491.16;;;1.53;100.00
11108;BME280;5607;48.302;14.294;2023-02-14T04:38:48;100500.72;;;1.48;100.00
11108;BME280;5607;48.302;14.294;2023-02-14T04:41:35;100489.00;;;1.34;100.00
11108;BME280;5607;48.302;14.294;2023-02-14T04:44:22;100496.59;;;1.41;100.00
11108;BME280;5607;48.302;14.294;2023-02-14T04:47:09;100493.13;;;1.42;100.00
11108;BME280;5607;48.302;14.294;2023-02-14T04:49:55;100490.25;;;1.18;100.00
11108;BME280;5607;48.302;14.294;2023-02-14T04:52:42;100492.91;;;1.14;100.00
11108;BME280;5607;48.302;14.294;2023-02-14T04:55:28;100487.81;;;1.11;100.00
11108;BME280;5607;48.302;14.294;2023-02-14T04:58:16;100502.09;;;1.25;100.00
11108;BME280;5607;48.302;14.294;2023-02-14T05:01:02;100492.41;;;0.96;100.00
11108;BME280;5607;48.302;14.294;2023-02-14T05:03:49;100480.75;;;0.78;100.00
11108;BME280;5607;48.302;14.294;2023-02-14T05:06:35;100492.41;;;0.96;100.00
11108;BME280;5607;48.302;14.294;2023-02-14T05:09:22;100487.72;;;0.75;100.00
11108;BME280;5607;48.302;14.294;2023-02-14T05:12:09;100490.16;;;0.81;100.00
11108;BME280;5607;48.302;14.294;2023-02-14T05:14:57;100482.78;;;0.64;100.00
11108;BME280;5607;48.302;14.294;2023-02-14T05:17:43;100486.00;;;0.74;100.00
11108;BME280;5607;48.302;14.294;2023-02-14T05:20:30;100486.84;;;0.76;100.00
11108;BME280;5607;48.302;14.294;2023-02-14T05:23:17;100482.31;;;0.87;100.00
11108;BME280;5607;48.302;14.294;2023-02-14T05:26:04;100483.16;;;0.88;100.00
11108;BME280;5607;48.302;14.294;2023-02-14T05:28:51;100460.41;;;0.68;100.00
11108;BME280;5607;48.302;14.294;2023-02-14T05:31:37;100489.41;;;0.74;100.00
11108;BME280;5607;48.302;14.294;2023-02-14T05:34:24;100486.72;;;0.82;100.00
11108;BME280;5607;48.302;14.294;2023-02-14T05:37:10;100489.41;;;0.74;100.00
11108;BME280;5607;48.302;14.294;2023-02-14T05:39:57;100488.81;;;0.62;100.00
11108;BME280;5607;48.302;14.294;2023-02-14T05:42:44;100483.47;;;0.72;100.00
11108;BME280;5607;48.302;14.294;2023-02-14T05:45:30;100480.59;;;0.44;100.00
11108;BME280;5607;48.302;14.294;2023-02-14T05:48:17;100473.59;;;0.51;100.00
11108;BME280;5607;48.302;14.294;2023-02-14T05:51:07;100480.13;;;0.22;100.00
11108;BME280;5607;48.302;14.294;2023-02-14T05:53:54;100467.84;;;0.37;100.00
11108;BME280;5607;48.302;14.294;2023-02-14T05:56:43;100461.09;;;0.33;100.00
11108;BME280;5607;48.302;14.294;2023-02-14T05:59:29;100485.19;;;0.72;100.00
11108;BME280;5607;48.302;14.294;2023-02-14T06:02:16;100458.00;;;0.60;100.00
11108;BME280;5607;48.302;14.294;2023-02-14T06:05:02;100498.94;;;0.71;100.00
11108;BME280;5607;48.302;14.294;2023-02-14T06:07:49;100497.19;;;0.71;100.00
11108;BME280;5607;48.302;14.294;2023-02-14T06:10:36;100496.88;;;0.88;100.00
11108;BME280;5607;48.302;14.294;2023-02-14T06:13:22;100492.72;;;0.81;100.00
11108;BME280;5607;48.302;14.294;2023-02-14T06:16:10;100491.50;;;0.56;100.00
11108;BME280;5607;48.302;14.294;2023-02-14T06:18:56;100498.69;;;0.83;100.00
11108;BME280;5607;48.302;14.294;2023-02-14T06:21:43;100500.19;;;0.93;100.00
11108;BME280;5607;48.302;14.294;2023-02-14T06:24:29;100501.41;;;0.74;100.00
11108;BME280;5607;48.302;14.294;2023-02-14T06:27:16;100503.03;;;0.81;100.00
11108;BME280;5607;48.302;14.294;2023-02-14T06:30:03;100502.13;;;0.82;100.00
11108;BME280;5607;48.302;14.294;2023-02-14T06:32:50;100509.75;;;0.87;100.00
11108;BME280;5607;48.302;14.294;2023-02-14T06:35:37;100501.16;;;0.44;100.00
11108;BME280;5607;48.302;14.294;2023-02-14T06:38:23;100516.78;;;0.32;100.00
11108;BME280;5607;48.302;14.294;2023-02-14T06:41:10;100503.47;;;0.09;100.00
11108;BME280;5607;48.302;14.294;2023-02-14T06:43:57;100503.06;;;-0.18;100.00
11108;BME280;5607;48.302;14.294;2023-02-14T06:46:43;100512.41;;;-0.14;100.00
11108;BME280;5607;48.302;14.294;2023-02-14T06:49:30;100503.59;;;0.03;100.00
11108;BME280;5607;48.302;14.294;2023-02-14T06:52:16;100487.75;;;-0.24;100.00
11108;BME280;5607;48.302;14.294;2023-02-14T06:55:03;100489.28;;;-0.14;100.00
11108;BME280;5607;48.302;14.294;2023-02-14T06:57:50;100497.09;;;-0.20;100.00
11108;BME280;5607;48.302;14.294;2023-02-14T07:00:36;100501.25;;;0.37;100.00
11108;BME280;5607;48.302;14.294;2023-02-14T07:03:25;100501.16;;;0.44;100.00
11108;BME280;5607;48.302;14.294;2023-02-14T07:06:12;100512.38;;;0.39;100.00
11108;BME280;5607;48.302;14.294;2023-02-14T07:08:58;100510.25;;;0.61;100.00
11108;BME280;5607;48.302;14.294;2023-02-14T07:11:45;100504.91;;;0.71;100.00
11108;BME280;5607;48.302;14.294;2023-02-14T07:14:31;100497.88;;;0.81;100.00
11108;BME280;5607;48.302;14.294;2023-02-14T07:17:18;100483.97;;;0.90;100.00
11108;BME280;5607;48.302;14.294;2023-02-14T07:20:05;100504.78;;;0.77;100.00
11108;BME280;5607;48.302;14.294;2023-02-14T07:22:52;100498.41;;;0.53;100.00
11108;BME280;5607;48.302;14.294;2023-02-14T07:25:40;100503.84;;;0.37;100.00
11108;BME280;5607;48.302;14.294;2023-02-14T07:28:27;100512.53;;;0.31;100.00
11108;BME280;5607;48.302;14.294;2023-02-14T07:31:16;100474.94;;;-0.24;100.00
11108;BME280;5607;48.302;14.294;2023-02-14T07:34:03;100495.09;;;-0.03;100.00
11108;BME280;5607;48.302;14.294;2023-02-14T07:36:50;100480.34;;;0.10;100.00
11108;BME280;5607;48.302;14.294;2023-02-14T07:39:36;100499.59;;;0.34;100.00
11108;BME280;5607;48.302;14.294;2023-02-14T07:42:23;100459.56;;;0.22;100.00
11108;BME280;5607;48.302;14.294;2023-02-14T07:45:09;100489.69;;;0.61;100.00
11108;BME280;5607;48.302;14.294;2023-02-14T07:47:56;100497.88;;;0.81;100.00
11108;BME280;5607;48.302;14.294;2023-02-14T07:50:47;100490.94;;;0.85;100.00
11108;BME280;5607;48.302;14.294;2023-02-14T07:53:34;100490.75;;;0.92;100.00
11108;BME280;5607;48.302;14.294;2023-02-14T07:56:20;100479.41;;;1.02;100.00
11108;BME280;5607;48.302;14.294;2023-02-14T07:59:07;100488.03;;;1.01;100.00
11108;BME280;5607;48.302;14.294;2023-02-14T08:01:53;100494.22;;;0.91;100.00
11108;BME280;5607;48.302;14.294;2023-02-14T08:04:40;100489.47;;;0.71;100.00
11108;BME280;5607;48.302;14.294;2023-02-14T08:07:26;100476.16;;;0.52;100.00
11108;BME280;5607;48.302;14.294;2023-02-14T08:10:13;100485.50;;;1.00;100.00
11108;BME280;5607;48.302;14.294;2023-02-14T08:13:00;100487.94;;;1.04;100.00
11108;BME280;5607;48.302;14.294;2023-02-14T08:15:47;100492.81;;;1.18;100.00
11108;BME280;5607;48.302;14.294;2023-02-14T08:18:52;100502.00;;;0.88;100.00
11108;BME280;5607;48.302;14.294;2023-02-14T08:21:39;100497.41;;;0.61;100.00
11108;BME280;5607;48.302;14.294;2023-02-14T08:24:26;100491.72;;;0.88;100.00
11108;BME280;5607;48.302;14.294;2023-02-14T08:27:12;100500.81;;;1.04;100.00
11108;BME280;5607;48.302;14.294;2023-02-14T08:29:59;100499.66;;;1.19;100.00
11108;BME280;5607;48.302;14.294;2023-02-14T08:32:45;100493.41;;;1.31;100.00
11108;BME280;5607;48.302;14.294;2023-02-14T08:35:33;100493.53;;;1.25;100.00
11108;BME280;5607;48.302;14.294;2023-02-14T08:38:20;100498.47;;;0.92;100.00
11108;BME280;5607;48.302;14.294;2023-02-14T08:41:06;100498.59;;;1.28;100.00
11108;BME280;5607;48.302;14.294;2023-02-14T08:43:53;100505.16;;;1.41;100.00
11108;BME280;5607;48.302;14.294;2023-02-14T08:46:39;100502.41;;;1.50;100.00
11108;BME280;5607;48.302;14.294;2023-02-14T08:49:27;100501.84;;;1.36;100.00
11108;BME280;5607;48.302;14.294;2023-02-14T08:52:14;100514.91;;;1.27;100.00
11108;BME280;5607;48.302;14.294;2023-02-14T08:55:00;100502.91;;;1.27;100.00
11108;BME280;5607;48.302;14.294;2023-02-14T08:57:48;100504.41;;;1.36;100.00
11108;BME280;5607;48.302;14.294;2023-02-14T09:00:34;100503.31;;;1.07;100.00
11108;BME280;5607;48.302;14.294;2023-02-14T09:03:22;100513.88;;;1.35;100.00
11108;BME280;5607;48.302;14.294;2023-02-14T09:06:12;100514.63;;;1.41;100.00
11108;BME280;5607;48.302;14.294;2023-02-14T09:09:02;100509.94;;;1.18;100.00
11108;BME280;5607;48.302;14.294;2023-02-14T09:11:48;100500.72;;;1.09;100.00
11108;BME280;5607;48.302;14.294;2023-02-14T09:14:39;100507.38;;;1.19;100.00
11108;BME280;5607;48.302;14.294;2023-02-14T09:17:27;100504.34;;;1.00;100.00
11108;BME280;5607;48.302;14.294;2023-02-14T09:20:14;100495.69;;;1.03;100.00
11108;BME280;5607;48.302;14.294;2023-02-14T09:23:01;100498.94;;;1.51;100.00
11108;BME280;5607;48.302;14.294;2023-02-14T09:25:47;100498.94;;;1.51;100.00
11108;BME280;5607;48.302;14.294;2023-02-14T09:28:34;100497.38;;;1.44;100.00
11108;BME280;5607;48.302;14.294;2023-02-14T09:31:22;100491.13;;;1.16;100.00
11108;BME280;5607;48.302;14.294;2023-02-14T09:34:09;100492.41;;;0.96;100.00
11108;BME280;5607;48.302;14.294;2023-02-14T09:36:56;100493.75;;;1.14;100.00
11108;BME280;5607;48.302;14.294;2023-02-14T09:40:01;100497.25;;;1.50;100.00
11108;BME280;5607;48.302;14.294;2023-02-14T09:43:01;100492.13;;;1.49;100.00
11108;BME280;5607;48.302;14.294;2023-02-14T09:45:53;100481.28;;;1.72;100.00
11108;BME280;5607;48.302;14.294;2023-02-14T09:48:44;100496.19;;;2.29;100.00
11108;BME280;5607;48.302;14.294;2023-02-14T09:51:32;100506.59;;;2.26;100.00
11108;BME280;5607;48.302;14.294;2023-02-14T09:54:23;100493.53;;;2.32;100.00
11108;BME280;5607;48.302;14.294;2023-02-14T09:57:21;100503.44;;;2.14;100.00
11108;BME280;5607;48.302;14.294;2023-02-14T10:12:26;100487.38;;;2.36;100.00
11108;BME280;5607;48.302;14.294;2023-02-14T10:15:20;100489.09;;;2.37;100.00
11108;BME280;5607;48.302;14.294;2023-02-14T10:18:21;100490.34;;;2.55;100.00
11108;BME280;5607;48.302;14.294;2023-02-14T10:21:15;100481.69;;;2.57;100.00
11108;BME280;5607;48.302;14.294;2023-02-14T10:30:11;100495.47;;;2.56;100.00
11108;BME280;5607;48.302;14.294;2023-02-14T10:33:12;100483.38;;;2.58;100.00
11108;BME280;5607;48.302;14.294;2023-02-14T10:39:28;100488.97;;;2.74;100.00
11108;BME280;5607;48.302;14.294;2023-02-14T10:45:49;100485.31;;;2.81;100.00
11108;BME280;5607;48.302;14.294;2023-02-14T10:51:58;100480.72;;;2.91;100.00
11108;BME280;5607;48.302;14.294;2023-02-14T10:54:59;100469.13;;;2.76;100.00
11108;BME280;5607;48.302;14.294;2023-02-14T10:57:50;100469.59;;;2.89;100.00
11108;BME280;5607;48.302;14.294;2023-02-14T11:00:49;100459.09;;;2.95;100.00
11108;BME280;5607;48.302;14.294;2023-02-14T11:03:40;100453.66;;;3.06;100.00
11108;BME280;5607;48.302;14.294;2023-02-14T11:06:27;100453.59;;;3.07;100.00
11108;BME280;5607;48.302;14.294;2023-02-14T11:09:14;100453.59;;;3.07;100.00
11108;BME280;5607;48.302;14.294;2023-02-14T11:12:01;100456.50;;;2.65;100.00
11108;BME280;5607;48.302;14.294;2023-02-14T11:14:47;100451.44;;;2.62;100.00
11108;BME280;5607;48.302;14.294;2023-02-14T11:17:34;100433.53;;;2.58;100.00
11108;BME280;5607;48.302;14.294;2023-02-14T11:20:28;100442.03;;;2.30;100.00
11108;BME280;5607;48.302;14.294;2023-02-14T11:23:18;100440.91;;;2.70;100.00
11108;BME280;5607;48.302;14.294;2023-02-14T11:26:33;100445.84;;;2.78;100.00
11108;BME280;5607;48.302;14.294;2023-02-14T11:29:26;100429.28;;;2.86;100.00
11108;BME280;5607;48.302;14.294;2023-02-14T11:32:15;100429.16;;;2.89;100.00
11108;BME280;5607;48.302;14.294;2023-02-14T11:35:07;100423.03;;;2.93;100.00
11108;BME280;5607;48.302;14.294;2023-02-14T11:38:24;100421.78;;;2.77;100.00
11108;BME280;5607;48.302;14.294;2023-02-14T11:41:13;100416.47;;;3.11;100.00
11108;BME280;5607;48.302;14.294;2023-02-14T11:44:13;100425.38;;;3.01;100.00
11108;BME280;5607;48.302;14.294;2023-02-14T11:47:26;100419.56;;;3.22;100.00
11108;BME280;5607;48.302;14.294;2023-02-14T11:50:22;100418.78;;;3.20;100.00
11108;BME280;5607;48.302;14.294;2023-02-14T11:53:11;100419.56;;;3.22;100.00
11108;BME280;5607;48.302;14.294;2023-02-14T11:55:58;100411.63;;;3.29;100.00
11108;BME280;5607;48.302;14.294;2023-02-14T11:59:01;100408.91;;;3.33;100.00
11108;BME280;5607;48.302;14.294;2023-02-14T12:01:49;100413.59;;;3.20;100.00
11108;BME280;5607;48.302;14.294;2023-02-14T12:04:38;100415.09;;;3.28;100.00
11108;BME280;5607;48.302;14.294;2023-02-14T12:07:35;100417.69;;;3.28;100.00
11108;BME280;5607;48.302;14.294;2023-02-14T12:10:31;100403.59;;;3.10;100.00
11108;BME280;5607;48.302;14.294;2023-02-14T12:13:23;100401.72;;;3.15;100.00
11108;BME280;5607;48.302;14.294;2023-02-14T12:16:20;100389.91;;;3.08;100.00
11108;BME280;5607;48.302;14.294;2023-02-14T12:19:36;100390.94;;;3.30;100.00
11108;BME280;5607;48.302;14.294;2023-02-14T12:22:38;100393.34;;;3.08;100.00
11108;BME280;5607;48.302;14.294;2023-02-14T12:25:47;100388.13;;;2.82;100.00
11108;BME280;5607;48.302;14.294;2023-02-14T12:28:40;100377.72;;;3.13;100.00
11108;BME280;5607;48.302;14.294;2023-02-14T12:31:28;100385.31;;;3.17;100.00
11108;BME280;5607;48.302;14.294;2023-02-14T12:34:16;100376.72;;;3.17;100.00
11108;BME280;5607;48.302;14.294;2023-02-14T12:37:39;100363.19;;;3.09;100.00
11108;BME280;5607;48.302;14.294;2023-02-14T12:43:47;100367.97;;;2.94;100.00
11108;BME280;5607;48.302;14.294;2023-02-14T12:56:16;100360.81;;;3.31;100.00
11108;BME280;5607;48.302;14.294;2023-02-14T13:20:37;100329.97;;;3.00;100.00
11108;BME280;5607;48.302;14.294;2023-02-14T13:23:36;100336.28;;;3.17;100.00
11108;BME280;5607;48.302;14.294;2023-02-14T13:26:29;100323.59;;;3.10;100.00
11108;BME280;5607;48.302;14.294;2023-02-14T13:29:20;100322.13;;;2.75;100.00
11108;BME280;5607;48.302;14.294;2023-02-14T13:32:12;100330.66;;;3.05;100.00
11108;BME280;5607;48.302;14.294;2023-02-14T13:35:00;100319.91;;;2.90;100.00
11108;BME280;5607;48.302;14.294;2023-02-14T13:37:54;100321.13;;;3.07;100.00
11108;BME280;5607;48.302;14.294;2023-02-14T13:40:44;100321.84;;;3.10;100.00
11108;BME280;5607;48.302;14.294;2023-02-14T13:46:46;100318.84;;;3.24;100.00
11108;BME280;5607;48.302;14.294;2023-02-14T13:49:47;100328.75;;;3.10;100.00
11108;BME280;5607;48.302;14.294;2023-02-14T13:55:34;100327.47;;;2.96;100.00
11108;BME280;5607;48.302;14.294;2023-02-14T13:58:22;100320.63;;;2.67;100.00
11108;BME280;5607;48.302;14.294;2023-02-14T14:01:31;100321.09;;;2.52;100.00
11108;BME280;5607;48.302;14.294;2023-02-14T14:07:16;100319.56;;;2.45;100.00
11108;BME280;5607;48.302;14.294;2023-02-14T14:10:04;100321.56;;;2.93;100.00
11108;BME280;5607;48.302;14.294;2023-02-14T14:12:51;100331.78;;;2.96;100.00
11108;BME280;5607;48.302;14.294;2023-02-14T14:22:08;100327.72;;;2.89;100.00
11108;BME280;5607;48.302;14.294;2023-02-14T14:25:04;100331.78;;;2.96;100.00
11108;BME280;5607;48.302;14.294;2023-02-14T14:27:52;100334.56;;;3.16;100.00
11108;BME280;5607;48.302;14.294;2023-02-14T14:30:42;100325.59;;;3.02;100.00
11108;BME280;5607;48.302;14.294;2023-02-14T14:33:32;100330.56;;;3.08;100.00
11108;BME280;5607;48.302;14.294;2023-02-14T14:36:22;100318.56;;;2.79;100.00
11108;BME280;5607;48.302;14.294;2023-02-14T14:39:09;100313.81;;;2.93;100.00
11108;BME280;5607;48.302;14.294;2023-02-14T14:42:14;100316.41;;;2.93;100.00
11108;BME280;5607;48.302;14.294;2023-02-14T14:45:06;100306.88;;;2.95;100.00
11108;BME280;5607;48.302;14.294;2023-02-14T14:47:56;100307.72;;;2.95;100.00
11108;BME280;5607;48.302;14.294;2023-02-14T14:50:45;100313.38;;;2.79;100.00
11108;BME280;5607;48.302;14.294;2023-02-14T14:53:42;100308.69;;;2.91;100.00
11108;BME280;5607;48.302;14.294;2023-02-14T14:56:37;100300.94;;;2.93;100.00
11108;BME280;5607;48.302;14.294;2023-02-14T14:59:32;100303.38;;;3.24;100.00
11108;BME280;5607;48.302;14.294;2023-02-14T15:02:25;100309.91;;;3.08;100.00
11108;BME280;5607;48.302;14.294;2023-02-14T15:05:23;100307.25;;;3.11;100.00
11108;BME280;5607;48.302;14.294;2023-02-14T15:13:56;100289.69;;;3.20;100.00
11108;BME280;5607;48.302;14.294;2023-02-14T15:16:51;100292.19;;;2.97;100.00
11108;BME280;5607;48.302;14.294;2023-02-14T15:19:41;100288.50;;;3.04;100.00
11108;BME280;5607;48.302;14.294;2023-02-14T15:22:42;100287.97;;;2.94;100.00
11108;BME280;5607;48.302;14.294;2023-02-14T15:25:33;100289.78;;;2.91;100.00
11108;BME280;5607;48.302;14.294;2023-02-14T15:28:34;100296.66;;;2.92;100.00
11108;BME280;5607;48.302;14.294;2023-02-14T15:31:24;100291.50;;;2.64;100.00
11108;BME280;5607;48.302;14.294;2023-02-14T15:34:12;100295.97;;;2.87;100.00
11108;BME280;5607;48.302;14.294;2023-02-14T15:36:59;100294.09;;;2.90;100.00
11108;BME280;5607;48.302;14.294;2023-02-14T15:39:53;100305.91;;;2.97;100.00
11108;BME280;5607;48.302;14.294;2023-02-14T15:42:44;100297.66;;;2.88;100.00
11108;BME280;5607;48.302;14.294;2023-02-14T15:45:30;100305.06;;;2.97;100.00
11108;BME280;5607;48.302;14.294;2023-02-14T15:48:21;100300.81;;;2.96;100.00
11108;BME280;5607;48.302;14.294;2023-02-14T15:51:29;100306.56;;;2.78;100.00
11108;BME280;5607;48.302;14.294;2023-02-14T15:54:24;100304.88;;;2.77;100.00
11108;BME280;5607;48.302;14.294;2023-02-14T15:57:24;100303.00;;;2.82;100.00
11108;BME280;5607;48.302;14.294;2023-02-14T16:00:19;100299.56;;;2.81;100.00
11108;BME280;5607;48.302;14.294;2023-02-14T16:03:11;100300.09;;;2.92;100.00
11108;BME280;5607;48.302;14.294;2023-02-14T16:05:59;100292.88;;;2.76;100.00
11108;BME280;5607;48.302;14.294;2023-02-14T16:08:53;100287.13;;;2.66;100.00
11108;BME280;5607;48.302;14.294;2023-02-14T16:11:40;100290.34;;;2.74;100.00
11108;BME280;5607;48.302;14.294;2023-02-14T16:14:36;100289.78;;;2.91;100.00
11108;BME280;5607;48.302;14.294;2023-02-14T16:17:33;100291.44;;;2.65;100.00
11108;BME280;5607;48.302;14.294;2023-02-14T16:20:35;100293.31;;;2.60;100.00
11108;BME280;5607;48.302;14.294;2023-02-14T16:23:27;100294.41;;;2.53;100.00
11108;BME280;5607;48.302;14.294;2023-02-14T16:26:14;100293.56;;;2.53;100.00
11108;BME280;5607;48.302;14.294;2023-02-14T16:29:01;100293.84;;;2.72;100.00
11108;BME280;5607;48.302;14.294;2023-02-14T16:34:37;100297.63;;;2.61;100.00
11108;BME280;5607;48.302;14.294;2023-02-14T16:37:28;100297.09;;;2.50;100.00
11108;BME280;5607;48.302;14.294;2023-02-14T16:40:15;100295.13;;;2.58;100.00
11108;BME280;5607;48.302;14.294;2023-02-14T16:43:02;100296.00;;;2.57;100.00
11108;BME280;5607;48.302;14.294;2023-02-14T16:45:49;100296.78;;;2.59;100.00
11108;BME280;5607;48.302;14.294;2023-02-14T16:48:36;100296.00;;;2.57;100.00
11108;BME280;5607;48.302;14.294;2023-02-14T16:51:26;100303.97;;;2.50;100.00
11108;BME280;5607;48.302;14.294;2023-02-14T16:54:17;100306.59;;;2.48;100.00